Аэропорт: Ивано-Франковск. Ивано-Франковск

ICAO: UKLI

METAR:
2019/03/26 13:00
UKLI 261300Z 28006MPS 250V310 9999 BKN040 07/M03 Q1017 R28/190068 NOSIG
METAR:
2019/02/01 12:09
TAF 
      AMD TAF 
      AMD UKLI 011205Z 0112/0124 VRB01MPS 3000 BR BKN008 TX02/0112Z TNM03/0118Z 
      TEMPO 0114/0121 0200 FZFG VV003